FFT331 EHAM-EDDM
Flight info
| Callsign | FFT331 |
|---|---|
| Flight time | N/A |
| Altitude | 35000 |
| Route | EDUPO Z739 MISGO DCT DOJOH DCT DODEN/N0443F330 DCT TABUM DCT BOMBI T104 HAREM/N0418F270 T104 ROKIL ROKIL1A |
| Aircraft | A321/M-SDE3FGHIRWY/LB1 |
Departure
| Time | 2026-04-28 16:11 |
|---|---|
| Airport | Amsterdam Airport Schiphol (EHAM) |
Arrival
| Time | N/A |
|---|---|
| Airport | Munich Airport (EDDM) |
| Time | Latitude | Longitude | Altitude | Speed | Heading |
|---|---|---|---|---|---|
| 2026-04-28 15:47 | 52.30881 | 4.77175 | -2 ft | 0 kts | 4° |
| 2026-04-28 15:57 | 52.30858 | 4.77171 | -2 ft | 4 kts | 22° |
| 2026-04-28 15:57 | 52.30847 | 4.77154 | -2 ft | 1 kts | 94° |
| 2026-04-28 15:57 | 52.30847 | 4.77153 | -2 ft | 2 kts | 94° |
| 2026-04-28 16:00 | 52.30847 | 4.77152 | -2 ft | 0 kts | 94° |
| 2026-04-28 16:00 | 52.30847 | 4.77156 | -2 ft | 1 kts | 94° |
| 2026-04-28 16:01 | 52.30846 | 4.77175 | -2 ft | 1 kts | 94° |
| 2026-04-28 16:01 | 52.30845 | 4.77184 | -2 ft | 2 kts | 94° |
| 2026-04-28 16:01 | 52.30842 | 4.77259 | -2 ft | 11 kts | 94° |
| 2026-04-28 16:01 | 52.30837 | 4.77400 | -2 ft | 13 kts | 93° |
| 2026-04-28 16:02 | 52.30834 | 4.77538 | -2 ft | 8 kts | 85° |
| 2026-04-28 16:02 | 52.30867 | 4.77603 | -2 ft | 8 kts | 21° |
| 2026-04-28 16:02 | 52.30920 | 4.77613 | -2 ft | 8 kts | 4° |
| 2026-04-28 16:02 | 52.30972 | 4.77616 | -2 ft | 8 kts | 1° |
| 2026-04-28 16:03 | 52.31025 | 4.77619 | -2 ft | 7 kts | 3° |
| 2026-04-28 16:03 | 52.31076 | 4.77624 | -2 ft | 7 kts | 3° |
| 2026-04-28 16:03 | 52.31128 | 4.77630 | -2 ft | 7 kts | 4° |
| 2026-04-28 16:03 | 52.31188 | 4.77637 | -2 ft | 10 kts | 4° |
| 2026-04-28 16:04 | 52.31272 | 4.77646 | -2 ft | 14 kts | 2° |
| 2026-04-28 16:04 | 52.31376 | 4.77651 | -2 ft | 17 kts | 2° |
| 2026-04-28 16:04 | 52.31487 | 4.77610 | -2 ft | 16 kts | 332° |
| 2026-04-28 16:04 | 52.31560 | 4.77477 | -2 ft | 16 kts | 299° |
| 2026-04-28 16:05 | 52.31577 | 4.77288 | -3 ft | 18 kts | 266° |
| 2026-04-28 16:05 | 52.31569 | 4.77099 | -3 ft | 16 kts | 266° |
| 2026-04-28 16:05 | 52.31563 | 4.76920 | -3 ft | 16 kts | 267° |
| 2026-04-28 16:05 | 52.31557 | 4.76742 | -3 ft | 16 kts | 266° |
| 2026-04-28 16:06 | 52.31550 | 4.76566 | -2 ft | 15 kts | 266° |
| 2026-04-28 16:06 | 52.31546 | 4.76393 | -2 ft | 15 kts | 267° |
| 2026-04-28 16:06 | 52.31539 | 4.76218 | -2 ft | 15 kts | 266° |
| 2026-04-28 16:06 | 52.31533 | 4.76045 | -2 ft | 15 kts | 266° |
| 2026-04-28 16:07 | 52.31527 | 4.75869 | -2 ft | 16 kts | 266° |
| 2026-04-28 16:07 | 52.31521 | 4.75693 | -3 ft | 16 kts | 267° |
| 2026-04-28 16:07 | 52.31508 | 4.75334 | -3 ft | 16 kts | 266° |
| 2026-04-28 16:08 | 52.31501 | 4.75156 | -3 ft | 16 kts | 266° |
| 2026-04-28 16:08 | 52.31496 | 4.74981 | -2 ft | 15 kts | 267° |
| 2026-04-28 16:08 | 52.31490 | 4.74814 | -2 ft | 15 kts | 266° |
| 2026-04-28 16:09 | 52.31544 | 4.74661 | -2 ft | 3 kts | 354° |
| 2026-04-28 16:09 | 52.31550 | 4.74660 | -2 ft | 1 kts | 355° |
| 2026-04-28 16:09 | 52.31578 | 4.74657 | -1 ft | 10 kts | 356° |
| 2026-04-28 16:10 | 52.31668 | 4.74735 | 0 ft | 0 kts | 85° |
| 2026-04-28 16:10 | 52.31668 | 4.74740 | 0 ft | 3 kts | 86° |
| 2026-04-28 16:10 | 52.31717 | 4.76171 | 1 ft | 123 kts | 87° |
| 2026-04-28 16:11 | 52.31804 | 4.79513 | 688 ft | 149 kts | 84° |
| 2026-04-28 16:11 | 52.31913 | 4.82899 | 1845 ft | 153 kts | 83° |
| 2026-04-28 16:12 | 52.31947 | 4.86880 | 2383 ft | 202 kts | 98° |
| 2026-04-28 16:12 | 52.31431 | 4.89184 | 2812 ft | 229 kts | 109° |
| 2026-04-28 16:13 | 52.30116 | 4.94157 | 4407 ft | 244 kts | 111° |
| 2026-04-28 16:13 | 52.29470 | 4.96727 | 5308 ft | 246 kts | 106° |
| 2026-04-28 16:13 | 52.28486 | 5.02168 | 6981 ft | 254 kts | 104° |
| 2026-04-28 16:14 | 52.27524 | 5.07809 | 8546 ft | 261 kts | 104° |
| 2026-04-28 16:14 | 52.26529 | 5.13585 | 10168 ft | 268 kts | 105° |
| 2026-04-28 16:15 | 52.25436 | 5.19863 | 10753 ft | 310 kts | 104° |
| 2026-04-28 16:15 | 52.24821 | 5.23349 | 11069 ft | 327 kts | 106° |
| 2026-04-28 16:15 | 52.23890 | 5.26796 | 11650 ft | 337 kts | 118° |
| 2026-04-28 16:16 | 52.22299 | 5.30598 | 12265 ft | 349 kts | 123° |
| 2026-04-28 16:16 | 52.20887 | 5.33839 | 13042 ft | 349 kts | 123° |
| 2026-04-28 16:17 | 52.18058 | 5.40331 | 14531 ft | 354 kts | 122° |
| 2026-04-28 16:17 | 52.16632 | 5.43605 | 15166 ft | 357 kts | 123° |
| 2026-04-28 16:17 | 52.15178 | 5.46942 | 15665 ft | 365 kts | 122° |
| 2026-04-28 16:17 | 52.13707 | 5.50313 | 16231 ft | 370 kts | 124° |
| 2026-04-28 16:18 | 52.12204 | 5.53754 | 16835 ft | 373 kts | 124° |
| 2026-04-28 16:18 | 52.10691 | 5.57212 | 17458 ft | 376 kts | 123° |
| 2026-04-28 16:18 | 52.09165 | 5.60692 | 18054 ft | 379 kts | 124° |
| 2026-04-28 16:18 | 52.07634 | 5.64185 | 18690 ft | 380 kts | 122° |
| 2026-04-28 16:19 | 52.06077 | 5.67674 | 19181 ft | 385 kts | 127° |
| 2026-04-28 16:19 | 52.04315 | 5.71005 | 19670 ft | 389 kts | 128° |
| 2026-04-28 16:19 | 52.02538 | 5.74321 | 20127 ft | 393 kts | 129° |
| 2026-04-28 16:19 | 52.00731 | 5.77685 | 20611 ft | 396 kts | 128° |
| 2026-04-28 16:20 | 51.98913 | 5.81064 | 21147 ft | 398 kts | 129° |
| 2026-04-28 16:20 | 51.97084 | 5.84456 | 21643 ft | 401 kts | 129° |
| 2026-04-28 16:20 | 51.95246 | 5.87873 | 22168 ft | 403 kts | 129° |
| 2026-04-28 16:20 | 51.93397 | 5.91323 | 22619 ft | 407 kts | 128° |
| 2026-04-28 16:21 | 51.91538 | 5.94799 | 23089 ft | 410 kts | 129° |
| 2026-04-28 16:21 | 51.89661 | 5.98307 | 23578 ft | 413 kts | 128° |
| 2026-04-28 16:21 | 51.87769 | 6.01839 | 23933 ft | 418 kts | 130° |
| 2026-04-28 16:21 | 51.85852 | 6.05402 | 24242 ft | 423 kts | 130° |
| 2026-04-28 16:22 | 51.83906 | 6.09009 | 24622 ft | 426 kts | 130° |
| 2026-04-28 16:22 | 51.81946 | 6.12621 | 25022 ft | 428 kts | 130° |
| 2026-04-28 16:22 | 51.79971 | 6.16241 | 25415 ft | 431 kts | 129° |
| 2026-04-28 16:22 | 51.77985 | 6.19863 | 25804 ft | 433 kts | 130° |
| 2026-04-28 16:23 | 51.75977 | 6.23525 | 26196 ft | 435 kts | 130° |
| 2026-04-28 16:23 | 51.73968 | 6.27195 | 26580 ft | 438 kts | 130° |
| 2026-04-28 16:23 | 51.71944 | 6.30888 | 26960 ft | 440 kts | 130° |
| 2026-04-28 16:23 | 51.69909 | 6.34594 | 27265 ft | 444 kts | 130° |
| 2026-04-28 16:24 | 51.67850 | 6.38335 | 27576 ft | 447 kts | 130° |
| 2026-04-28 16:24 | 51.65805 | 6.42041 | 27915 ft | 450 kts | 130° |
| 2026-04-28 16:24 | 51.63691 | 6.45867 | 28257 ft | 452 kts | 130° |
| 2026-04-28 16:24 | 51.61624 | 6.49606 | 28601 ft | 455 kts | 131° |
| 2026-04-28 16:25 | 51.59489 | 6.53459 | 28995 ft | 456 kts | 131° |
| 2026-04-28 16:25 | 51.57373 | 6.57272 | 29328 ft | 458 kts | 131° |
| 2026-04-28 16:25 | 51.55247 | 6.61105 | 29694 ft | 460 kts | 131° |
| 2026-04-28 16:25 | 51.53117 | 6.64946 | 30083 ft | 460 kts | 131° |
| 2026-04-28 16:26 | 51.50989 | 6.68776 | 30486 ft | 459 kts | 131° |
| 2026-04-28 16:26 | 51.48897 | 6.72536 | 30841 ft | 459 kts | 131° |
| 2026-04-28 16:26 | 51.46759 | 6.76370 | 31155 ft | 461 kts | 131° |
| 2026-04-28 16:26 | 51.44578 | 6.80267 | 31395 ft | 464 kts | 131° |
| 2026-04-28 16:27 | 51.42420 | 6.84108 | 31756 ft | 465 kts | 131° |
| 2026-04-28 16:27 | 51.40243 | 6.87960 | 32068 ft | 465 kts | 133° |
| 2026-04-28 16:27 | 51.35719 | 6.95323 | 32819 ft | 465 kts | 137° |